sensor_id;sensor_type;location;lat;lon;timestamp;temperature;humidity
40589;DHT22;26297;49.450;6.640;2022-09-09T04:00:59;18.90;99.90
40589;DHT22;26297;49.450;6.640;2022-09-09T04:04:03;19.00;99.90
40589;DHT22;26297;49.450;6.640;2022-09-09T04:07:06;19.00;99.90
40589;DHT22;26297;49.450;6.640;2022-09-09T04:10:10;19.00;99.90
40589;DHT22;26297;49.450;6.640;2022-09-09T04:13:14;19.00;99.90
40589;DHT22;26297;49.450;6.640;2022-09-09T04:16:19;19.00;99.90
40589;DHT22;26297;49.450;6.640;2022-09-09T04:19:23;19.10;99.90
40589;DHT22;26297;49.450;6.640;2022-09-09T04:22:26;19.00;99.90
40589;DHT22;26297;49.450;6.640;2022-09-09T04:25:29;19.00;99.90
40589;DHT22;26297;49.450;6.640;2022-09-09T04:28:33;18.90;99.90
40589;DHT22;26297;49.450;6.640;2022-09-09T04:31:37;18.90;99.90
40589;DHT22;26297;49.450;6.640;2022-09-09T04:34:44;19.00;99.90
40589;DHT22;26297;49.450;6.640;2022-09-09T04:37:47;19.00;99.90
40589;DHT22;26297;49.450;6.640;2022-09-09T04:40:51;19.00;99.90
40589;DHT22;26297;49.450;6.640;2022-09-09T04:43:56;19.00;99.90
40589;DHT22;26297;49.450;6.640;2022-09-09T04:46:59;18.90;99.90
40589;DHT22;26297;49.450;6.640;2022-09-09T04:50:02;18.90;99.90
40589;DHT22;26297;49.450;6.640;2022-09-09T04:53:06;18.90;99.90
40589;DHT22;26297;49.450;6.640;2022-09-09T04:56:15;18.80;99.90
40589;DHT22;26297;49.450;6.640;2022-09-09T04:59:19;18.80;99.90
40589;DHT22;26297;49.450;6.640;2022-09-09T05:02:22;18.90;99.90
40589;DHT22;26297;49.450;6.640;2022-09-09T05:05:25;18.90;99.90
40589;DHT22;26297;49.450;6.640;2022-09-09T05:08:29;19.00;99.90
40589;DHT22;26297;49.450;6.640;2022-09-09T05:11:33;19.00;99.90
40589;DHT22;26297;49.450;6.640;2022-09-09T05:14:39;19.10;99.90
40589;DHT22;26297;49.450;6.640;2022-09-09T05:17:42;19.00;99.90
40589;DHT22;26297;49.450;6.640;2022-09-09T05:20:45;19.00;99.90
40589;DHT22;26297;49.450;6.640;2022-09-09T05:23:49;18.90;99.90
40589;DHT22;26297;49.450;6.640;2022-09-09T05:26:53;18.90;99.90
40589;DHT22;26297;49.450;6.640;2022-09-09T05:29:57;18.90;99.90
40589;DHT22;26297;49.450;6.640;2022-09-09T05:33:00;18.90;99.90
40589;DHT22;26297;49.450;6.640;2022-09-09T05:36:06;18.90;99.90
40589;DHT22;26297;49.450;6.640;2022-09-09T05:39:11;18.90;99.90
40589;DHT22;26297;49.450;6.640;2022-09-09T05:42:14;19.00;99.90
40589;DHT22;26297;49.450;6.640;2022-09-09T05:45:17;19.00;99.90
40589;DHT22;26297;49.450;6.640;2022-09-09T05:48:20;19.00;99.90
40589;DHT22;26297;49.450;6.640;2022-09-09T05:51:26;19.00;99.90
40589;DHT22;26297;49.450;6.640;2022-09-09T05:54:29;19.00;99.90
40589;DHT22;26297;49.450;6.640;2022-09-09T05:57:33;18.90;99.90
40589;DHT22;26297;49.450;6.640;2022-09-09T06:00:36;18.90;99.90
40589;DHT22;26297;49.450;6.640;2022-09-09T06:03:41;18.90;99.90
40589;DHT22;26297;49.450;6.640;2022-09-09T06:06:45;18.90;99.90
40589;DHT22;26297;49.450;6.640;2022-09-09T06:09:48;18.90;99.90
40589;DHT22;26297;49.450;6.640;2022-09-09T06:12:52;18.80;99.90
40589;DHT22;26297;49.450;6.640;2022-09-09T06:15:56;18.90;99.90
40589;DHT22;26297;49.450;6.640;2022-09-09T06:19:02;18.90;99.90
40589;DHT22;26297;49.450;6.640;2022-09-09T06:22:08;18.90;99.90
40589;DHT22;26297;49.450;6.640;2022-09-09T06:25:15;18.80;99.90
40589;DHT22;26297;49.450;6.640;2022-09-09T06:28:18;18.90;99.90
40589;DHT22;26297;49.450;6.640;2022-09-09T06:31:23;18.90;99.90
40589;DHT22;26297;49.450;6.640;2022-09-09T06:34:27;18.90;99.90
40589;DHT22;26297;49.450;6.640;2022-09-09T06:37:31;18.90;99.90
40589;DHT22;26297;49.450;6.640;2022-09-09T06:40:34;18.90;99.90
40589;DHT22;26297;49.450;6.640;2022-09-09T06:43:38;18.90;99.90
40589;DHT22;26297;49.450;6.640;2022-09-09T06:46:42;18.90;99.90
40589;DHT22;26297;49.450;6.640;2022-09-09T06:49:46;18.90;99.90
40589;DHT22;26297;49.450;6.640;2022-09-09T06:52:49;18.90;99.90
40589;DHT22;26297;49.450;6.640;2022-09-09T06:55:52;18.90;99.90
40589;DHT22;26297;49.450;6.640;2022-09-09T06:58:57;18.90;99.90
40589;DHT22;26297;49.450;6.640;2022-09-09T07:02:07;18.90;99.90
40589;DHT22;26297;49.450;6.640;2022-09-09T07:05:10;19.00;99.90
40589;DHT22;26297;49.450;6.640;2022-09-09T07:08:13;19.00;99.90
40589;DHT22;26297;49.450;6.640;2022-09-09T07:11:19;19.00;99.90
40589;DHT22;26297;49.450;6.640;2022-09-09T07:14:22;19.00;99.90
40589;DHT22;26297;49.450;6.640;2022-09-09T07:17:25;18.90;99.90
40589;DHT22;26297;49.450;6.640;2022-09-09T07:20:29;18.90;99.90
40589;DHT22;26297;49.450;6.640;2022-09-09T07:23:33;18.90;99.90
40589;DHT22;26297;49.450;6.640;2022-09-09T07:26:39;18.80;99.90
40589;DHT22;26297;49.450;6.640;2022-09-09T07:29:42;18.80;99.90
40589;DHT22;26297;49.450;6.640;2022-09-09T07:32:45;18.90;99.90
40589;DHT22;26297;49.450;6.640;2022-09-09T07:35:48;18.90;99.90
40589;DHT22;26297;49.450;6.640;2022-09-09T07:38:54;18.90;99.90
40589;DHT22;26297;49.450;6.640;2022-09-09T07:41:57;18.90;99.90
40589;DHT22;26297;49.450;6.640;2022-09-09T07:45:01;19.00;99.90
40589;DHT22;26297;49.450;6.640;2022-09-09T07:48:05;18.90;99.90
40589;DHT22;26297;49.450;6.640;2022-09-09T07:51:12;19.00;99.90
40589;DHT22;26297;49.450;6.640;2022-09-09T07:54:19;19.10;99.90
40589;DHT22;26297;49.450;6.640;2022-09-09T07:57:26;19.20;99.90
40589;DHT22;26297;49.450;6.640;2022-09-09T08:00:30;19.20;99.90
40589;DHT22;26297;49.450;6.640;2022-09-09T08:03:45;19.30;99.90
40589;DHT22;26297;49.450;6.640;2022-09-09T08:06:52;19.40;99.90
40589;DHT22;26297;49.450;6.640;2022-09-09T08:09:56;19.50;99.90
40589;DHT22;26297;49.450;6.640;2022-09-09T08:12:59;19.50;99.90
40589;DHT22;26297;49.450;6.640;2022-09-09T08:16:11;19.40;99.90
40589;DHT22;26297;49.450;6.640;2022-09-09T08:19:15;19.30;99.90
40589;DHT22;26297;49.450;6.640;2022-09-09T08:22:18;19.40;99.90
40589;DHT22;26297;49.450;6.640;2022-09-09T08:25:21;19.40;99.90
40589;DHT22;26297;49.450;6.640;2022-09-09T08:28:25;19.50;99.90
40589;DHT22;26297;49.450;6.640;2022-09-09T08:31:34;19.50;99.90
40589;DHT22;26297;49.450;6.640;2022-09-09T08:34:37;19.60;99.90
40589;DHT22;26297;49.450;6.640;2022-09-09T08:37:40;19.60;99.90
40589;DHT22;26297;49.450;6.640;2022-09-09T08:40:47;19.70;99.90
40589;DHT22;26297;49.450;6.640;2022-09-09T08:50:36;19.80;99.90
40589;DHT22;26297;49.450;6.640;2022-09-09T08:53:44;19.70;99.90
40589;DHT22;26297;49.450;6.640;2022-09-09T08:56:50;19.80;99.90
40589;DHT22;26297;49.450;6.640;2022-09-09T08:59:55;19.80;99.90
40589;DHT22;26297;49.450;6.640;2022-09-09T09:13:20;19.90;99.90
40589;DHT22;26297;49.450;6.640;2022-09-09T09:16:37;19.90;99.90
40589;DHT22;26297;49.450;6.640;2022-09-09T09:19:43;20.00;99.90
40589;DHT22;26297;49.450;6.640;2022-09-09T09:22:51;20.00;99.90
40589;DHT22;26297;49.450;6.640;2022-09-09T09:25:59;20.00;99.90
40589;DHT22;26297;49.450;6.640;2022-09-09T09:29:15;20.00;99.90
40589;DHT22;26297;49.450;6.640;2022-09-09T09:32:19;19.90;99.90
40589;DHT22;26297;49.450;6.640;2022-09-09T09:35:24;19.80;99.90
40589;DHT22;26297;49.450;6.640;2022-09-09T09:38:28;19.80;99.90
40589;DHT22;26297;49.450;6.640;2022-09-09T09:41:34;19.70;99.90
40589;DHT22;26297;49.450;6.640;2022-09-09T09:44:38;19.70;99.90
40589;DHT22;26297;49.450;6.640;2022-09-09T09:47:42;19.80;99.90
40589;DHT22;26297;49.450;6.640;2022-09-09T09:50:51;19.70;99.90
40589;DHT22;26297;49.450;6.640;2022-09-09T09:57:16;19.80;99.90
40589;DHT22;26297;49.450;6.640;2022-09-09T10:00:22;19.90;99.90
40589;DHT22;26297;49.450;6.640;2022-09-09T10:03:34;19.90;99.90
40589;DHT22;26297;49.450;6.640;2022-09-09T10:06:43;19.90;99.90
40589;DHT22;26297;49.450;6.640;2022-09-09T10:09:52;19.90;99.90
40589;DHT22;26297;49.450;6.640;2022-09-09T10:19:34;20.00;99.90
40589;DHT22;26297;49.450;6.640;2022-09-09T10:22:39;20.00;99.90
40589;DHT22;26297;49.450;6.640;2022-09-09T10:36:02;20.10;99.90
40589;DHT22;26297;49.450;6.640;2022-09-09T10:42:21;19.90;99.90
40589;DHT22;26297;49.450;6.640;2022-09-09T10:52:31;19.90;99.90
40589;DHT22;26297;49.450;6.640;2022-09-09T10:55:41;20.00;99.90
40589;DHT22;26297;49.450;6.640;2022-09-09T10:59:07;20.00;99.90
40589;DHT22;26297;49.450;6.640;2022-09-09T11:02:17;20.00;99.90
40589;DHT22;26297;49.450;6.640;2022-09-09T11:05:31;20.00;99.90
40589;DHT22;26297;49.450;6.640;2022-09-09T11:08:38;20.00;99.90
40589;DHT22;26297;49.450;6.640;2022-09-09T11:11:52;20.00;99.90
40589;DHT22;26297;49.450;6.640;2022-09-09T11:15:58;20.00;99.90
40589;DHT22;26297;49.450;6.640;2022-09-09T11:18:40;19.90;99.90
40589;DHT22;26297;49.450;6.640;2022-09-09T11:21:49;19.90;99.90
40589;DHT22;26297;49.450;6.640;2022-09-09T11:32:13;20.00;99.90
40589;DHT22;26297;49.450;6.640;2022-09-09T11:38:48;20.00;99.90
40589;DHT22;26297;49.450;6.640;2022-09-09T11:41:54;20.00;99.90
40589;DHT22;26297;49.450;6.640;2022-09-09T11:45:22;20.00;99.90
40589;DHT22;26297;49.450;6.640;2022-09-09T11:48:44;20.00;99.90
40589;DHT22;26297;49.450;6.640;2022-09-09T11:51:51;20.00;99.90
40589;DHT22;26297;49.450;6.640;2022-09-09T11:54:55;20.00;99.90
40589;DHT22;26297;49.450;6.640;2022-09-09T11:58:00;20.10;99.90
40589;DHT22;26297;49.450;6.640;2022-09-09T12:01:14;20.10;99.90
40589;DHT22;26297;49.450;6.640;2022-09-09T12:04:41;20.10;99.90
40589;DHT22;26297;49.450;6.640;2022-09-09T12:07:52;20.10;99.90
40589;DHT22;26297;49.450;6.640;2022-09-09T12:10:58;20.10;99.90
40589;DHT22;26297;49.450;6.640;2022-09-09T12:14:02;20.10;99.90
40589;DHT22;26297;49.450;6.640;2022-09-09T12:24:16;20.10;99.90
40589;DHT22;26297;49.450;6.640;2022-09-09T12:27:12;20.10;99.90
40589;DHT22;26297;49.450;6.640;2022-09-09T12:30:23;20.10;99.90
40589;DHT22;26297;49.450;6.640;2022-09-09T12:33:53;20.10;99.90
40589;DHT22;26297;49.450;6.640;2022-09-09T12:37:12;20.10;99.90
40589;DHT22;26297;49.450;6.640;2022-09-09T12:40:29;20.10;99.90
40589;DHT22;26297;49.450;6.640;2022-09-09T12:44:11;20.10;99.90
40589;DHT22;26297;49.450;6.640;2022-09-09T12:54:30;20.20;99.90
40589;DHT22;26297;49.450;6.640;2022-09-09T12:58:11;20.20;99.90
40589;DHT22;26297;49.450;6.640;2022-09-09T13:09:20;20.20;99.90
40589;DHT22;26297;49.450;6.640;2022-09-09T13:13:13;20.10;99.90
40589;DHT22;26297;49.450;6.640;2022-09-09T13:17:05;20.10;99.90
40589;DHT22;26297;49.450;6.640;2022-09-09T13:20:31;20.10;99.90
40589;DHT22;26297;49.450;6.640;2022-09-09T13:23:53;20.00;99.90
40589;DHT22;26297;49.450;6.640;2022-09-09T13:30:39;19.90;99.90
40589;DHT22;26297;49.450;6.640;2022-09-09T13:33:56;19.90;99.90
40589;DHT22;26297;49.450;6.640;2022-09-09T13:41:08;20.00;99.90
40589;DHT22;26297;49.450;6.640;2022-09-09T13:44:27;19.90;99.90
40589;DHT22;26297;49.450;6.640;2022-09-09T13:47:39;20.00;99.90
40589;DHT22;26297;49.450;6.640;2022-09-09T13:51:04;20.00;99.90
40589;DHT22;26297;49.450;6.640;2022-09-09T13:54:56;20.00;99.90
40589;DHT22;26297;49.450;6.640;2022-09-09T13:58:30;20.10;99.90
40589;DHT22;26297;49.450;6.640;2022-09-09T14:01:47;20.10;99.90
40589;DHT22;26297;49.450;6.640;2022-09-09T14:04:57;20.20;99.90
40589;DHT22;26297;49.450;6.640;2022-09-09T14:08:07;20.20;99.90
40589;DHT22;26297;49.450;6.640;2022-09-09T14:11:19;20.20;99.90
40589;DHT22;26297;49.450;6.640;2022-09-09T14:14:30;20.20;99.90
40589;DHT22;26297;49.450;6.640;2022-09-09T14:22:02;20.10;99.90
40589;DHT22;26297;49.450;6.640;2022-09-09T14:25:06;19.90;99.90
40589;DHT22;26297;49.450;6.640;2022-09-09T14:28:11;19.80;99.90
40589;DHT22;26297;49.450;6.640;2022-09-09T14:31:14;19.80;99.90
40589;DHT22;26297;49.450;6.640;2022-09-09T14:34:17;19.80;99.90
40589;DHT22;26297;49.450;6.640;2022-09-09T14:37:21;19.80;99.90
40589;DHT22;26297;49.450;6.640;2022-09-09T14:40:24;19.80;99.90
40589;DHT22;26297;49.450;6.640;2022-09-09T14:43:27;19.90;99.90
40589;DHT22;26297;49.450;6.640;2022-09-09T14:46:31;19.90;99.90
40589;DHT22;26297;49.450;6.640;2022-09-09T14:49:37;19.90;99.90
40589;DHT22;26297;49.450;6.640;2022-09-09T14:52:40;20.00;99.90
40589;DHT22;26297;49.450;6.640;2022-09-09T14:55:43;20.00;99.90
40589;DHT22;26297;49.450;6.640;2022-09-09T14:58:47;20.10;99.90
40589;DHT22;26297;49.450;6.640;2022-09-09T15:01:51;20.10;99.90
40589;DHT22;26297;49.450;6.640;2022-09-09T15:04:53;20.10;99.90
40589;DHT22;26297;49.450;6.640;2022-09-09T15:07:59;20.20;99.90
40589;DHT22;26297;49.450;6.640;2022-09-09T15:11:04;20.20;99.90
40589;DHT22;26297;49.450;6.640;2022-09-09T15:14:09;20.20;99.90
40589;DHT22;26297;49.450;6.640;2022-09-09T15:17:12;20.20;99.90
40589;DHT22;26297;49.450;6.640;2022-09-09T15:20:15;20.20;99.90
40589;DHT22;26297;49.450;6.640;2022-09-09T15:23:19;20.20;99.90
40589;DHT22;26297;49.450;6.640;2022-09-09T15:26:22;20.20;99.90
40589;DHT22;26297;49.450;6.640;2022-09-09T15:29:25;20.20;99.90
40589;DHT22;26297;49.450;6.640;2022-09-09T15:32:29;20.20;99.90
40589;DHT22;26297;49.450;6.640;2022-09-09T15:35:32;20.20;99.90
40589;DHT22;26297;49.450;6.640;2022-09-09T15:38:36;20.20;99.90
40589;DHT22;26297;49.450;6.640;2022-09-09T15:41:39;20.20;99.90
40589;DHT22;26297;49.450;6.640;2022-09-09T15:44:43;20.20;99.90
40589;DHT22;26297;49.450;6.640;2022-09-09T15:47:47;20.20;99.90
40589;DHT22;26297;49.450;6.640;2022-09-09T15:51:01;20.20;99.90
40589;DHT22;26297;49.450;6.640;2022-09-09T15:54:06;20.20;99.90
40589;DHT22;26297;49.450;6.640;2022-09-09T15:57:12;20.20;99.90
40589;DHT22;26297;49.450;6.640;2022-09-09T16:00:16;20.20;99.90
40589;DHT22;26297;49.450;6.640;2022-09-09T16:03:19;20.20;99.90
40589;DHT22;26297;49.450;6.640;2022-09-09T16:06:29;20.20;99.90
40589;DHT22;26297;49.450;6.640;2022-09-09T16:09:34;20.20;99.90
40589;DHT22;26297;49.450;6.640;2022-09-09T16:12:46;20.20;99.90
40589;DHT22;26297;49.450;6.640;2022-09-09T16:15:55;20.10;99.90
40589;DHT22;26297;49.450;6.640;2022-09-09T16:19:04;20.10;99.90
40589;DHT22;26297;49.450;6.640;2022-09-09T16:22:08;20.00;99.90
40589;DHT22;26297;49.450;6.640;2022-09-09T16:25:12;20.00;99.90
40589;DHT22;26297;49.450;6.640;2022-09-09T16:28:16;20.00;99.90
40589;DHT22;26297;49.450;6.640;2022-09-09T16:31:30;19.90;99.90
40589;DHT22;26297;49.450;6.640;2022-09-09T16:34:34;19.90;99.90
40589;DHT22;26297;49.450;6.640;2022-09-09T16:37:37;19.90;99.90
40589;DHT22;26297;49.450;6.640;2022-09-09T16:40:40;19.90;99.90
40589;DHT22;26297;49.450;6.640;2022-09-09T16:43:44;19.90;99.90
40589;DHT22;26297;49.450;6.640;2022-09-09T16:46:48;19.90;99.90
40589;DHT22;26297;49.450;6.640;2022-09-09T16:49:55;19.90;99.90
40589;DHT22;26297;49.450;6.640;2022-09-09T16:52:58;20.00;99.90
40589;DHT22;26297;49.450;6.640;2022-09-09T16:56:06;19.90;99.90
40589;DHT22;26297;49.450;6.640;2022-09-09T16:59:12;20.00;99.90
40589;DHT22;26297;49.450;6.640;2022-09-09T17:02:16;20.00;99.90
40589;DHT22;26297;49.450;6.640;2022-09-09T17:05:19;20.00;99.90
40589;DHT22;26297;49.450;6.640;2022-09-09T17:08:22;19.90;99.90
40589;DHT22;26297;49.450;6.640;2022-09-09T17:11:27;19.70;99.90
40589;DHT22;26297;49.450;6.640;2022-09-09T17:14:31;19.60;99.90
40589;DHT22;26297;49.450;6.640;2022-09-09T17:17:34;19.50;99.90
40589;DHT22;26297;49.450;6.640;2022-09-09T17:20:38;19.50;99.90
40589;DHT22;26297;49.450;6.640;2022-09-09T17:23:42;19.40;99.90
40589;DHT22;26297;49.450;6.640;2022-09-09T17:26:45;19.40;99.90
40589;DHT22;26297;49.450;6.640;2022-09-09T17:29:48;19.30;99.90
40589;DHT22;26297;49.450;6.640;2022-09-09T17:32:51;19.30;99.90
40589;DHT22;26297;49.450;6.640;2022-09-09T17:35:54;19.30;99.90
40589;DHT22;26297;49.450;6.640;2022-09-09T17:38:58;19.30;99.90
40589;DHT22;26297;49.450;6.640;2022-09-09T17:42:03;19.40;99.90
40589;DHT22;26297;49.450;6.640;2022-09-09T17:45:06;19.40;99.90
40589;DHT22;26297;49.450;6.640;2022-09-09T17:48:09;19.40;99.90
40589;DHT22;26297;49.450;6.640;2022-09-09T17:51:15;19.50;99.90
40589;DHT22;26297;49.450;6.640;2022-09-09T17:54:19;19.40;99.90
40589;DHT22;26297;49.450;6.640;2022-09-09T17:57:23;19.40;99.90
40589;DHT22;26297;49.450;6.640;2022-09-09T18:00:26;19.40;99.90
40589;DHT22;26297;49.450;6.640;2022-09-09T18:03:30;19.50;99.90
40589;DHT22;26297;49.450;6.640;2022-09-09T18:06:37;19.50;99.90
40589;DHT22;26297;49.450;6.640;2022-09-09T18:09:41;19.50;99.90
40589;DHT22;26297;49.450;6.640;2022-09-09T18:12:44;19.60;99.90
40589;DHT22;26297;49.450;6.640;2022-09-09T18:15:48;19.60;99.90
40589;DHT22;26297;49.450;6.640;2022-09-09T18:18:51;19.70;99.90
40589;DHT22;26297;49.450;6.640;2022-09-09T18:21:55;19.80;99.90
40589;DHT22;26297;49.450;6.640;2022-09-09T18:25:04;19.80;99.90
40589;DHT22;26297;49.450;6.640;2022-09-09T18:28:08;19.70;99.90
40589;DHT22;26297;49.450;6.640;2022-09-09T18:31:12;19.70;99.90
40589;DHT22;26297;49.450;6.640;2022-09-09T18:34:17;19.70;99.90
40589;DHT22;26297;49.450;6.640;2022-09-09T18:37:30;19.80;99.90
40589;DHT22;26297;49.450;6.640;2022-09-09T18:40:36;19.70;99.90
40589;DHT22;26297;49.450;6.640;2022-09-09T18:44:06;19.50;99.90
40589;DHT22;26297;49.450;6.640;2022-09-09T18:47:11;19.50;99.90
40589;DHT22;26297;49.450;6.640;2022-09-09T18:50:19;19.40;99.90
40589;DHT22;26297;49.450;6.640;2022-09-09T18:53:22;19.40;99.90
40589;DHT22;26297;49.450;6.640;2022-09-09T18:56:27;19.30;99.90
40589;DHT22;26297;49.450;6.640;2022-09-09T18:59:31;19.30;99.90
40589;DHT22;26297;49.450;6.640;2022-09-09T19:02:34;19.30;99.90
40589;DHT22;26297;49.450;6.640;2022-09-09T19:05:37;19.40;99.90
40589;DHT22;26297;49.450;6.640;2022-09-09T19:08:44;19.40;99.90
40589;DHT22;26297;49.450;6.640;2022-09-09T19:12:00;19.40;99.90
40589;DHT22;26297;49.450;6.640;2022-09-09T19:15:37;19.40;99.90
40589;DHT22;26297;49.450;6.640;2022-09-09T19:18:43;19.30;99.90
40589;DHT22;26297;49.450;6.640;2022-09-09T19:30:22;19.30;99.90
40589;DHT22;26297;49.450;6.640;2022-09-09T19:37:15;19.40;99.90
40589;DHT22;26297;49.450;6.640;2022-09-09T19:40:24;19.50;99.90
40589;DHT22;26297;49.450;6.640;2022-09-09T19:43:32;19.50;99.90
40589;DHT22;26297;49.450;6.640;2022-09-09T19:46:45;19.60;99.90
40589;DHT22;26297;49.450;6.640;2022-09-09T19:49:57;19.60;99.90
40589;DHT22;26297;49.450;6.640;2022-09-09T19:53:07;19.60;99.90
40589;DHT22;26297;49.450;6.640;2022-09-09T19:56:15;19.70;99.90
40589;DHT22;26297;49.450;6.640;2022-09-09T19:59:19;19.80;99.90
40589;DHT22;26297;49.450;6.640;2022-09-09T20:02:36;19.70;99.90
40589;DHT22;26297;49.450;6.640;2022-09-09T20:06:53;19.60;99.90
40589;DHT22;26297;49.450;6.640;2022-09-09T20:09:55;19.50;99.90
40589;DHT22;26297;49.450;6.640;2022-09-09T20:13:34;19.40;99.90
40589;DHT22;26297;49.450;6.640;2022-09-09T20:17:02;19.30;99.90
40589;DHT22;26297;49.450;6.640;2022-09-09T20:20:06;19.20;99.90
40589;DHT22;26297;49.450;6.640;2022-09-09T20:23:35;19.30;99.90
40589;DHT22;26297;49.450;6.640;2022-09-09T20:26:54;19.20;99.90
40589;DHT22;26297;49.450;6.640;2022-09-09T20:34:17;19.20;99.90
40589;DHT22;26297;49.450;6.640;2022-09-09T20:37:39;19.10;99.90
40589;DHT22;26297;49.450;6.640;2022-09-09T20:58:44;19.20;99.90
